createdAt,value
2022-12-13T00:01:24.918Z,9.65
2022-12-13T00:04:00.880Z,9.73
2022-12-13T00:06:29.385Z,9.93
2022-12-13T00:08:57.314Z,8.70
2022-12-13T00:11:25.048Z,8.65
2022-12-13T00:13:51.886Z,8.15
2022-12-13T00:16:22.805Z,7.85
2022-12-13T00:18:51.771Z,9.10
2022-12-13T00:21:20.977Z,8.52
2022-12-13T00:23:48.145Z,7.75
2022-12-13T00:26:21.401Z,8.02
2022-12-13T00:28:49.504Z,7.75
2022-12-13T00:34:05.520Z,8.13
2022-12-13T00:36:32.635Z,8.63
2022-12-13T00:39:02.784Z,8.80
2022-12-13T00:41:34.955Z,9.07
2022-12-13T00:44:03.410Z,8.82
2022-12-13T00:46:31.354Z,8.70
2022-12-13T00:49:01.243Z,7.88
2022-12-13T00:51:31.652Z,8.18
2022-12-13T00:54:00.015Z,7.45
2022-12-13T00:56:29.524Z,7.63
2022-12-13T00:58:57.265Z,8.80
2022-12-13T01:01:27.660Z,8.70
2022-12-13T01:03:56.719Z,7.65
2022-12-13T01:06:28.989Z,7.43
2022-12-13T01:08:55.955Z,8.05
2022-12-13T01:11:23.634Z,7.72
2022-12-13T01:13:50.721Z,8.73
2022-12-13T01:16:18.760Z,8.02
2022-12-13T01:18:46.060Z,8.35
2022-12-13T01:21:16.722Z,7.70
2022-12-13T01:23:44.111Z,9.38
2022-12-13T01:26:17.257Z,7.10
2022-12-13T01:28:44.189Z,7.80
2022-12-13T01:31:14.162Z,8.15
2022-12-13T01:33:42.115Z,7.45
2022-12-13T01:36:14.340Z,7.68
2022-12-13T01:38:41.484Z,8.80
2022-12-13T01:41:20.367Z,7.57
2022-12-13T01:43:57.531Z,8.55
2022-12-13T01:46:24.842Z,7.82
2022-12-13T01:49:00.868Z,7.38
2022-12-13T01:51:35.919Z,7.50
2022-12-13T01:54:06.458Z,8.75
2022-12-13T01:56:48.814Z,8.30
2022-12-13T01:59:19.135Z,7.60
2022-12-13T02:01:50.164Z,8.82
2022-12-13T02:04:26.051Z,8.35
2022-12-13T02:06:56.169Z,9.45
2022-12-13T02:09:25.182Z,8.05
2022-12-13T02:11:53.056Z,8.00
2022-12-13T02:14:19.912Z,8.23
2022-12-13T02:16:55.975Z,8.85
2022-12-13T02:20:07.149Z,7.47
2022-12-13T02:22:46.176Z,8.57
2022-12-13T02:25:36.238Z,7.63
2022-12-13T02:28:31.571Z,7.05
2022-12-13T02:31:06.014Z,7.75
2022-12-13T02:33:57.944Z,7.65
2022-12-13T02:36:38.015Z,7.13
2022-12-13T02:39:15.599Z,8.23
2022-12-13T02:41:53.151Z,8.55
2022-12-13T02:44:28.605Z,8.18
2022-12-13T02:47:01.032Z,8.63
2022-12-13T02:49:31.630Z,8.80
2022-12-13T02:52:00.434Z,9.50
2022-12-13T02:54:27.523Z,9.68
2022-12-13T02:56:58.556Z,8.48
2022-12-13T02:59:36.393Z,8.02
2022-12-13T03:02:21.599Z,7.35
2022-12-13T03:05:32.820Z,7.47
2022-12-13T03:08:21.730Z,8.57
2022-12-13T03:11:13.121Z,8.77
2022-12-13T03:13:54.821Z,8.68
2022-12-13T03:16:25.825Z,7.03
2022-12-13T03:18:55.320Z,8.68
2022-12-13T03:21:22.989Z,7.95
2022-12-13T03:23:50.277Z,8.30
2022-12-13T03:26:21.386Z,8.80
2022-12-13T03:28:49.144Z,8.13
2022-12-13T03:31:16.329Z,8.40
2022-12-13T03:33:43.336Z,9.23
2022-12-13T03:36:12.149Z,9.63
2022-12-13T03:38:40.744Z,9.60
2022-12-13T03:41:14.075Z,10.43
2022-12-13T03:43:41.054Z,11.20
2022-12-13T03:46:09.121Z,10.10
2022-12-13T03:48:36.376Z,10.48
2022-12-13T03:51:04.037Z,10.68
2022-12-13T03:53:33.350Z,9.40
2022-12-13T03:56:03.512Z,9.68
2022-12-13T03:58:35.597Z,9.65
2022-12-13T04:01:07.174Z,9.07
2022-12-13T04:03:34.500Z,11.45
2022-12-13T04:06:01.857Z,10.40
2022-12-13T04:08:29.066Z,11.27
2022-12-13T04:10:56.361Z,11.90
2022-12-13T04:13:35.444Z,10.35
2022-12-13T04:16:03.160Z,11.40
2022-12-13T04:18:30.186Z,9.48
2022-12-13T04:20:58.103Z,11.80
2022-12-13T04:23:25.072Z,11.02
2022-12-13T04:25:52.528Z,12.10
2022-12-13T04:28:22.698Z,12.25
2022-12-13T04:30:53.101Z,12.23
2022-12-13T04:33:22.432Z,11.75
2022-12-13T04:35:50.652Z,10.85
2022-12-13T04:38:18.218Z,10.52
2022-12-13T04:40:45.569Z,11.38
2022-12-13T04:43:12.480Z,12.02
2022-12-13T04:45:39.735Z,11.68
2022-12-13T04:48:07.015Z,12.77
2022-12-13T04:50:34.184Z,11.65
2022-12-13T04:53:01.046Z,10.10
2022-12-13T04:55:28.158Z,10.25
2022-12-13T04:57:55.117Z,12.55
2022-12-13T05:00:23.437Z,15.10
2022-12-13T05:02:50.642Z,12.88
2022-12-13T05:05:18.699Z,11.77
2022-12-13T05:07:46.320Z,12.50
2022-12-13T05:10:31.954Z,13.25
2022-12-13T05:13:01.172Z,11.18
2022-12-13T05:15:30.202Z,11.88
2022-12-13T05:18:09.986Z,11.50
2022-12-13T05:20:41.247Z,11.40
2022-12-13T05:23:09.032Z,12.10
2022-12-13T05:25:38.893Z,12.65
2022-12-13T05:28:08.828Z,10.43
2022-12-13T05:30:54.144Z,10.85
2022-12-13T05:33:22.523Z,10.77
2022-12-13T05:35:49.976Z,12.10
2022-12-13T05:38:17.594Z,11.18
2022-12-13T05:40:44.965Z,11.80
2022-12-13T05:43:22.118Z,10.55
2022-12-13T05:45:50.554Z,10.75
2022-12-13T05:48:24.666Z,11.82
2022-12-13T05:51:10.172Z,10.77
2022-12-13T05:53:42.271Z,10.32
2022-12-13T05:56:11.182Z,10.80
2022-12-13T05:58:39.763Z,9.35
2022-12-13T06:01:09.609Z,10.25
2022-12-13T06:03:36.738Z,11.02
2022-12-13T06:06:05.534Z,11.07
2022-12-13T06:08:32.934Z,10.52
2022-12-13T06:11:11.078Z,11.52
2022-12-13T06:13:44.122Z,9.25
2022-12-13T06:16:22.936Z,9.65
2022-12-13T06:19:00.940Z,9.80
2022-12-13T06:21:44.055Z,10.15
2022-12-13T06:24:17.774Z,8.02
2022-12-13T06:26:45.968Z,8.52
2022-12-13T06:29:23.258Z,8.18
2022-12-13T06:32:02.358Z,10.20
2022-12-13T06:34:32.871Z,12.50
2022-12-13T06:37:05.451Z,9.02
2022-12-13T06:39:33.766Z,9.83
2022-12-13T06:42:03.400Z,9.30
2022-12-13T06:44:30.288Z,8.65
2022-12-13T06:47:10.719Z,9.45
2022-12-13T06:49:42.259Z,9.32
2022-12-13T06:52:14.814Z,9.07
2022-12-13T06:54:43.667Z,9.15
2022-12-13T06:57:12.959Z,8.45
2022-12-13T06:59:40.665Z,8.43
2022-12-13T07:02:24.548Z,8.38
2022-12-13T07:04:53.741Z,9.45
2022-12-13T07:07:21.069Z,8.50
2022-12-13T07:09:48.038Z,8.48
2022-12-13T07:12:15.202Z,7.28
2022-12-13T07:14:42.136Z,8.15
2022-12-13T07:17:10.809Z,9.00
2022-12-13T07:19:38.083Z,7.85
2022-12-13T07:22:06.076Z,7.90
2022-12-13T07:24:35.265Z,8.15
2022-12-13T07:27:04.088Z,7.70
2022-12-13T07:29:30.987Z,8.13
2022-12-13T07:32:01.521Z,8.32
2022-12-13T07:34:30.130Z,7.85
2022-12-13T07:36:57.375Z,5.38
2022-12-13T07:39:27.651Z,6.65
2022-12-13T07:41:56.119Z,7.73
2022-12-13T07:44:24.327Z,6.65
2022-12-13T07:46:52.527Z,6.85
2022-12-13T07:49:19.911Z,6.40
2022-12-13T07:51:49.216Z,7.50
2022-12-13T07:54:16.976Z,5.47
2022-12-13T07:56:44.303Z,7.53
2022-12-13T07:59:13.102Z,8.55
2022-12-13T08:01:40.577Z,6.30
2022-12-13T08:04:10.617Z,7.22
2022-12-13T08:06:38.643Z,8.05
2022-12-13T08:09:06.393Z,8.32
2022-12-13T08:11:34.059Z,7.93
2022-12-13T08:14:01.200Z,8.68
2022-12-13T08:16:30.281Z,8.07
2022-12-13T08:19:01.622Z,8.90
2022-12-13T08:21:57.337Z,8.38
2022-12-13T08:24:27.955Z,7.90
2022-12-13T08:27:03.018Z,8.13
2022-12-13T08:29:34.423Z,8.77
2022-12-13T08:32:08.621Z,8.63
2022-12-13T08:34:36.554Z,9.15
2022-12-13T08:37:04.911Z,9.25
2022-12-13T08:39:37.022Z,10.63
2022-12-13T08:42:25.293Z,8.50
2022-12-13T08:44:53.674Z,8.07
2022-12-13T08:47:26.726Z,8.30
2022-12-13T08:50:01.429Z,8.65
2022-12-13T08:52:31.960Z,7.28
2022-12-13T08:55:12.724Z,6.95
2022-12-13T09:00:11.636Z,7.85
2022-12-13T09:02:39.008Z,7.35
2022-12-13T09:05:08.261Z,7.72
2022-12-13T09:07:36.762Z,8.85
2022-12-13T09:10:07.111Z,7.78
2022-12-13T09:13:01.923Z,9.10
2022-12-13T09:15:34.324Z,8.38
2022-12-13T09:18:04.873Z,6.00
2022-12-13T09:20:41.289Z,6.90
2022-12-13T09:23:14.079Z,8.45
2022-12-13T09:26:05.954Z,7.60
2022-12-13T09:28:34.766Z,7.25
2022-12-13T09:31:01.961Z,7.10
2022-12-13T09:33:30.690Z,7.60
2022-12-13T09:36:01.315Z,7.65
2022-12-13T09:38:28.822Z,6.63
2022-12-13T09:41:00.884Z,7.40
2022-12-13T09:43:42.966Z,7.78
2022-12-13T09:46:26.645Z,8.05
2022-12-13T09:49:03.635Z,6.47
2022-12-13T09:51:43.736Z,7.45
2022-12-13T09:54:18.903Z,6.88
2022-12-13T09:56:50.919Z,7.35
2022-12-13T09:59:39.600Z,7.60
2022-12-13T10:02:23.599Z,7.35
2022-12-13T10:04:52.350Z,6.97
2022-12-13T10:07:28.981Z,7.50
2022-12-13T10:10:04.015Z,7.40
2022-12-13T10:12:32.681Z,7.35
2022-12-13T10:15:02.399Z,8.10
2022-12-13T10:17:38.399Z,7.88
2022-12-13T10:20:06.402Z,7.55
2022-12-13T10:22:33.746Z,6.85
2022-12-13T10:25:04.066Z,8.07
2022-12-13T10:27:46.871Z,8.03
2022-12-13T10:30:19.690Z,7.68
2022-12-13T10:33:01.299Z,6.65
2022-12-13T10:35:41.630Z,8.32
2022-12-13T10:38:09.023Z,7.63
2022-12-13T10:40:40.912Z,8.00
2022-12-13T10:43:12.508Z,7.20
2022-12-13T10:45:40.470Z,7.78
2022-12-13T10:48:21.401Z,7.70
2022-12-13T10:51:13.154Z,8.63
2022-12-13T10:53:48.148Z,7.03
2022-12-13T10:56:23.385Z,7.45
2022-12-13T10:59:17.026Z,8.13
2022-12-13T11:01:44.719Z,6.90
2022-12-13T11:04:34.885Z,7.90
2022-12-13T11:07:23.765Z,8.40
2022-12-13T11:09:52.794Z,7.90
2022-12-13T11:12:26.228Z,7.78
2022-12-13T11:14:58.291Z,8.13
2022-12-13T11:17:28.347Z,8.57
2022-12-13T11:20:00.582Z,7.70
2022-12-13T11:25:08.945Z,8.40
2022-12-13T11:27:44.517Z,8.50
2022-12-13T11:30:38.407Z,7.82
2022-12-13T11:33:28.643Z,9.13
2022-12-13T11:36:24.854Z,8.25
2022-12-13T11:38:58.065Z,8.25
2022-12-13T11:41:33.111Z,7.50
2022-12-13T11:44:19.148Z,8.68
2022-12-13T11:46:56.044Z,8.48
2022-12-13T11:49:38.774Z,8.32
2022-12-13T11:52:30.117Z,7.47
2022-12-13T11:55:01.655Z,8.80
2022-12-13T11:57:44.218Z,9.00
2022-12-13T12:00:37.480Z,8.82
2022-12-13T12:03:15.756Z,8.20
2022-12-13T12:05:49.499Z,8.73
2022-12-13T12:08:35.237Z,8.95
2022-12-13T12:11:17.738Z,8.60
2022-12-13T12:14:00.709Z,9.05
2022-12-13T12:16:47.146Z,8.35
2022-12-13T12:19:20.673Z,8.00
2022-12-13T12:22:14.268Z,7.85
2022-12-13T12:24:54.346Z,7.00
2022-12-13T12:27:46.809Z,7.43
2022-12-13T12:30:23.267Z,9.05
2022-12-13T12:33:17.845Z,9.32
2022-12-13T12:36:06.453Z,8.57
2022-12-13T12:38:54.375Z,7.82
2022-12-13T12:41:48.402Z,7.68
2022-12-13T12:44:33.714Z,7.85
2022-12-13T12:48:07.230Z,8.10
2022-12-13T12:50:45.985Z,7.43
2022-12-13T12:53:16.172Z,7.95
2022-12-13T12:56:06.047Z,8.90
2022-12-13T12:59:01.243Z,7.10
2022-12-13T13:01:43.379Z,8.32
2022-12-13T13:04:22.550Z,8.48
2022-12-13T13:07:41.420Z,8.82
2022-12-13T13:10:26.229Z,7.53
2022-12-13T13:13:11.473Z,8.13
2022-12-13T13:16:01.114Z,9.52
2022-12-13T13:18:46.428Z,8.48
2022-12-13T13:21:46.243Z,9.45
2022-12-13T13:24:15.876Z,7.32
2022-12-13T13:26:52.748Z,9.65
2022-12-13T13:29:29.432Z,9.43
2022-12-13T13:32:27.978Z,8.07
2022-12-13T13:35:28.496Z,8.98
2022-12-13T13:37:57.211Z,9.98
2022-12-13T13:40:32.034Z,9.82
2022-12-13T13:43:05.424Z,8.80
2022-12-13T13:46:03.164Z,9.68
2022-12-13T13:48:49.384Z,9.23
2022-12-13T13:51:49.360Z,9.40
2022-12-13T13:55:03.508Z,8.65
2022-12-13T13:58:10.919Z,9.55
2022-12-13T14:01:15.505Z,9.32
2022-12-13T14:04:09.187Z,9.10
2022-12-13T14:07:15.508Z,9.20
2022-12-13T14:10:02.823Z,8.25
2022-12-13T14:12:48.619Z,9.45
2022-12-13T14:15:49.441Z,8.75
2022-12-13T14:18:32.490Z,8.82
2022-12-13T14:21:08.316Z,8.07
2022-12-13T14:23:44.601Z,7.78
2022-12-13T14:26:23.443Z,9.23
2022-12-13T14:28:55.398Z,9.60
2022-12-13T14:31:26.189Z,9.07
2022-12-13T14:33:55.929Z,10.07
2022-12-13T14:36:29.146Z,9.73
2022-12-13T14:39:05.187Z,9.48
2022-12-13T14:41:34.129Z,9.43
2022-12-13T14:44:39.802Z,9.20
2022-12-13T14:47:08.018Z,8.70
2022-12-13T14:49:39.075Z,10.25
2022-12-13T14:52:09.389Z,10.07
2022-12-13T14:54:46.285Z,10.48
2022-12-13T14:57:17.187Z,8.43
2022-12-13T14:59:53.289Z,9.48
2022-12-13T15:02:30.974Z,9.93
2022-12-13T15:05:01.739Z,10.23
2022-12-13T15:07:33.674Z,9.68
2022-12-13T15:10:05.191Z,10.48
2022-12-13T15:12:32.226Z,10.88
2022-12-13T15:15:02.468Z,10.65
2022-12-13T15:17:35.803Z,10.75
2022-12-13T15:20:22.466Z,11.30
2022-12-13T15:23:11.740Z,11.60
2022-12-13T15:25:42.545Z,12.32
2022-12-13T15:28:16.856Z,11.93
2022-12-13T15:30:47.618Z,10.30
2022-12-13T15:33:25.230Z,11.90
2022-12-13T15:36:04.271Z,11.55
2022-12-13T15:38:32.129Z,10.73
2022-12-13T15:41:00.835Z,11.60
2022-12-13T15:43:36.266Z,11.60
2022-12-13T15:46:06.608Z,11.85
2022-12-13T15:48:48.191Z,11.93
2022-12-13T15:51:28.455Z,10.95
2022-12-13T15:54:03.212Z,11.70
2022-12-13T15:56:36.553Z,12.20
2022-12-13T15:59:05.062Z,11.35
2022-12-13T16:01:36.797Z,12.25
2022-12-13T16:04:05.965Z,10.25
2022-12-13T16:06:33.923Z,12.75
2022-12-13T16:09:03.957Z,13.07
2022-12-13T16:11:39.151Z,14.05
2022-12-13T16:14:27.144Z,11.50
2022-12-13T16:16:55.751Z,13.32
2022-12-13T16:19:23.080Z,12.30
2022-12-13T16:21:50.314Z,12.60
2022-12-13T16:24:17.249Z,11.60
2022-12-13T16:26:46.822Z,12.13
2022-12-13T16:29:21.232Z,13.13
2022-12-13T16:31:48.974Z,14.07
2022-12-13T16:34:18.110Z,13.70
2022-12-13T16:36:47.550Z,11.00
2022-12-13T16:39:15.245Z,13.57
2022-12-13T16:41:45.696Z,12.77
2022-12-13T16:44:35.785Z,13.90
2022-12-13T16:47:13.096Z,13.77
2022-12-13T16:49:47.323Z,14.20
2022-12-13T16:52:15.069Z,14.25
2022-12-13T16:54:42.144Z,13.88
2022-12-13T16:57:09.562Z,11.57
2022-12-13T16:59:36.368Z,14.02
2022-12-13T17:02:04.379Z,12.82
2022-12-13T17:04:31.403Z,11.75
2022-12-13T17:06:58.530Z,13.10
2022-12-13T17:09:25.518Z,12.15
2022-12-13T17:11:52.968Z,14.07
2022-12-13T17:14:19.808Z,11.93
2022-12-13T17:16:47.397Z,12.13
2022-12-13T17:19:15.718Z,14.82
2022-12-13T17:21:43.153Z,11.70
2022-12-13T17:24:10.100Z,12.40
2022-12-13T17:26:37.251Z,13.00
2022-12-13T17:29:05.134Z,14.10
2022-12-13T17:31:35.653Z,13.25
2022-12-13T17:34:04.152Z,12.57
2022-12-13T17:36:31.657Z,12.88
2022-12-13T17:38:58.823Z,13.15
2022-12-13T17:41:26.345Z,13.80
2022-12-13T17:43:53.166Z,12.70
2022-12-13T17:46:20.506Z,12.60
2022-12-13T17:48:48.855Z,14.27
2022-12-13T17:51:16.285Z,13.52
2022-12-13T17:53:44.492Z,15.70
2022-12-13T17:56:15.150Z,13.95
2022-12-13T17:58:42.750Z,15.93
2022-12-13T18:01:15.427Z,16.38
2022-12-13T18:03:43.234Z,14.52
2022-12-13T18:06:10.988Z,16.35
2022-12-13T18:08:39.681Z,16.95
2022-12-13T18:11:31.864Z,18.25
2022-12-13T18:13:55.655Z,17.92
2022-12-13T18:16:28.950Z,17.33
2022-12-13T18:19:01.124Z,17.92
2022-12-13T18:21:28.285Z,16.70
2022-12-13T18:23:56.256Z,16.75
2022-12-13T18:26:24.521Z,16.73
2022-12-13T18:28:52.134Z,18.55
2022-12-13T18:31:22.515Z,17.52
2022-12-13T18:33:52.080Z,17.50
2022-12-13T18:36:21.603Z,17.17
2022-12-13T18:38:48.622Z,17.10
2022-12-13T18:41:24.677Z,19.33
2022-12-13T18:44:00.313Z,17.90
2022-12-13T18:46:30.545Z,19.25
2022-12-13T18:48:57.656Z,17.90
2022-12-13T18:51:25.450Z,20.17
2022-12-13T18:53:52.914Z,17.10
2022-12-13T18:56:20.853Z,16.88
2022-12-13T18:58:49.001Z,20.15
2022-12-13T19:01:17.392Z,18.25
2022-12-13T19:03:46.312Z,19.48
2022-12-13T19:06:17.398Z,19.25
2022-12-13T19:08:51.487Z,18.30
2022-12-13T19:11:19.998Z,19.15
2022-12-13T19:13:47.348Z,20.02
2022-12-13T19:16:17.387Z,21.73
2022-12-13T19:18:44.265Z,20.25
2022-12-13T19:21:14.477Z,20.13
2022-12-13T19:23:42.490Z,19.15
2022-12-13T19:26:13.217Z,20.33
2022-12-13T19:28:44.215Z,18.75
2022-12-13T19:33:42.046Z,18.48
2022-12-13T19:36:09.856Z,18.40
2022-12-13T19:38:37.275Z,17.88
2022-12-13T19:41:16.430Z,19.98
2022-12-13T19:43:50.762Z,17.08
2022-12-13T19:46:20.418Z,18.13
2022-12-13T19:48:47.713Z,19.27
2022-12-13T19:51:15.230Z,20.52
2022-12-13T19:53:42.371Z,18.55
2022-12-13T19:56:11.550Z,19.35
2022-12-13T19:58:39.533Z,19.25
2022-12-13T20:01:08.042Z,19.27
2022-12-13T20:03:45.702Z,21.85
2022-12-13T20:06:16.972Z,19.83
2022-12-13T20:08:44.385Z,20.58
2022-12-13T20:11:15.157Z,19.38
2022-12-13T20:13:42.007Z,18.85
2022-12-13T20:16:15.411Z,19.80
2022-12-13T20:18:42.329Z,18.23
2022-12-13T20:21:13.189Z,20.52
2022-12-13T20:23:48.959Z,21.00
2022-12-13T20:26:20.097Z,21.23
2022-12-13T20:28:47.627Z,20.60
2022-12-13T20:31:18.472Z,20.27
2022-12-13T20:33:45.528Z,22.63
2022-12-13T20:36:26.508Z,22.25
2022-12-13T20:38:56.432Z,21.88
2022-12-13T20:41:26.196Z,21.65
2022-12-13T20:43:54.981Z,20.00
2022-12-13T20:46:23.144Z,21.05
2022-12-13T20:48:51.151Z,21.10
2022-12-13T20:51:21.482Z,20.13
2022-12-13T20:53:49.536Z,22.85
2022-12-13T20:56:19.913Z,22.27
2022-12-13T20:58:47.657Z,20.60
2022-12-13T21:01:17.783Z,20.63
2022-12-13T21:03:45.457Z,20.73
2022-12-13T21:06:13.548Z,21.17
2022-12-13T21:08:53.048Z,21.08
2022-12-13T21:11:38.338Z,21.00
2022-12-13T21:14:37.341Z,21.00
2022-12-13T21:17:09.609Z,21.10
2022-12-13T21:19:40.155Z,20.85
2022-12-13T21:22:08.268Z,21.80
2022-12-13T21:24:35.231Z,19.73
2022-12-13T21:27:02.500Z,19.17
2022-12-13T21:29:29.335Z,21.88
2022-12-13T21:31:56.530Z,21.83
2022-12-13T21:34:23.506Z,21.45
2022-12-13T21:36:52.463Z,21.50
2022-12-13T21:39:23.196Z,21.98
2022-12-13T21:41:50.534Z,22.98
2022-12-13T21:44:18.296Z,20.67
2022-12-13T21:49:32.626Z,19.65
2022-12-13T21:51:59.679Z,21.20
2022-12-13T21:54:26.513Z,22.02
2022-12-13T21:57:12.755Z,21.25
2022-12-13T21:59:39.584Z,21.85
2022-12-13T22:02:12.606Z,20.92
2022-12-13T22:04:39.642Z,19.25
2022-12-13T22:07:08.396Z,21.40
2022-12-13T22:09:36.696Z,22.95
2022-12-13T22:12:09.603Z,21.42
2022-12-13T22:14:37.365Z,21.25
2022-12-13T22:17:04.697Z,20.33
2022-12-13T22:19:31.694Z,22.23
2022-12-13T22:21:59.244Z,21.55
2022-12-13T22:24:26.126Z,21.77
2022-12-13T22:26:53.265Z,21.50
2022-12-13T22:29:20.169Z,21.08
2022-12-13T22:31:48.780Z,21.65
2022-12-13T22:34:16.742Z,21.42
2022-12-13T22:36:43.914Z,22.50
2022-12-13T22:39:19.454Z,23.17
2022-12-13T22:41:47.811Z,23.05
2022-12-13T22:44:16.306Z,22.00
2022-12-13T22:46:43.741Z,21.70
2022-12-13T22:49:11.405Z,23.80
2022-12-13T22:51:38.890Z,21.63
2022-12-13T22:54:06.410Z,22.20
2022-12-13T22:56:33.835Z,24.15
2022-12-13T22:59:02.265Z,21.55
2022-12-13T23:01:32.537Z,23.30
2022-12-13T23:04:17.918Z,22.73
2022-12-13T23:06:45.358Z,22.73
2022-12-13T23:09:13.636Z,23.05
2022-12-13T23:11:59.616Z,23.70
2022-12-13T23:14:29.528Z,23.63
2022-12-13T23:16:56.942Z,23.40
2022-12-13T23:19:53.973Z,23.70
2022-12-13T23:22:11.257Z,20.83
2022-12-13T23:24:38.106Z,22.23
2022-12-13T23:27:05.256Z,23.52
2022-12-13T23:29:32.142Z,23.63
2022-12-13T23:31:59.256Z,20.27
2022-12-13T23:34:26.453Z,21.45
2022-12-13T23:36:53.543Z,24.15
2022-12-13T23:39:20.363Z,23.83
2022-12-13T23:41:47.635Z,24.27
2022-12-13T23:44:14.519Z,24.08
2022-12-13T23:46:41.846Z,23.23
2022-12-13T23:49:15.857Z,22.25
2022-12-13T23:51:43.453Z,23.35
2022-12-13T23:54:15.684Z,23.25
2022-12-13T23:56:42.944Z,24.90
2022-12-13T23:59:09.713Z,24.17
